Cornerville, Arkansas
Current Conditions -  °F | °C
As of 3:53 AM on Tuesday 21 Oct 2014 (Local Time) from KPBF Reporting Station
Scattered Clouds Scattered Clouds  
Wind Chill: 59°   Ceiling: Unl
Heat Index: 59°   Visibility: 10mi
Dew Point: 56°   Wind: 3mph
Humidity: 90%   Direction: 250°WSW
Pressure: 30.04"   Gusts: NA
Location:  33.924°N, 91.8685°W
Report Text: KPBF 210853Z AUTO 25003KT 10SM SCT046 15/13 A3004 RMK AO2 SLP171 T01500133 58002
Loading
Personal Weather Stations






























Interactive Weather Map
Tropical Storm Tracking
New forecast layout! Learn more

10-Day Weather Forecast

Advertisements
Track Severe Weather on mobile